createdAt,value
2023-05-15T00:00:00.145Z,82
2023-05-15T00:05:00.214Z,83
2023-05-15T00:10:00.113Z,84
2023-05-15T00:15:00.131Z,84
2023-05-15T00:20:00.159Z,84
2023-05-15T00:25:00.179Z,84
2023-05-15T00:30:00.153Z,84
2023-05-15T00:35:00.138Z,85
2023-05-15T00:40:00.174Z,85
2023-05-15T00:45:00.153Z,85
2023-05-15T00:50:00.172Z,86
2023-05-15T00:55:00.202Z,86
2023-05-15T01:00:00.151Z,86
2023-05-15T01:05:00.149Z,86
2023-05-15T01:10:00.158Z,86
2023-05-15T01:15:00.139Z,86
2023-05-15T01:20:00.352Z,86
2023-05-15T01:25:00.175Z,86
2023-05-15T01:30:00.141Z,86
2023-05-15T01:35:00.115Z,86
2023-05-15T01:40:00.156Z,85
2023-05-15T01:45:00.173Z,85
2023-05-15T01:50:00.127Z,85
2023-05-15T01:55:00.144Z,85
2023-05-15T02:00:00.116Z,85
2023-05-15T02:05:00.105Z,85
2023-05-15T02:10:00.172Z,85
2023-05-15T02:15:00.149Z,85
2023-05-15T02:20:00.111Z,85
2023-05-15T02:25:00.150Z,85
2023-05-15T02:30:00.164Z,86
2023-05-15T02:35:00.110Z,86
2023-05-15T02:40:00.213Z,87
2023-05-15T02:45:00.136Z,87
2023-05-15T02:50:00.130Z,87
2023-05-15T02:55:00.166Z,87
2023-05-15T03:00:00.124Z,88
2023-05-15T03:05:00.106Z,88
2023-05-15T03:10:00.144Z,89
2023-05-15T03:15:00.121Z,89
2023-05-15T03:20:00.124Z,89
2023-05-15T03:25:00.156Z,89
2023-05-15T03:30:00.100Z,89
2023-05-15T03:35:00.168Z,89
2023-05-15T03:40:00.148Z,89
2023-05-15T03:45:00.142Z,89
2023-05-15T03:50:00.159Z,89
2023-05-15T03:55:00.152Z,89
2023-05-15T04:00:00.123Z,89
2023-05-15T04:05:00.233Z,88
2023-05-15T04:10:00.152Z,88
2023-05-15T04:15:00.131Z,88
2023-05-15T04:20:00.102Z,87
2023-05-15T04:25:00.151Z,87
2023-05-15T04:30:00.122Z,87
2023-05-15T04:35:00.106Z,87
2023-05-15T04:40:00.241Z,86
2023-05-15T04:45:00.171Z,86
2023-05-15T04:50:00.209Z,85
2023-05-15T04:55:00.110Z,83
2023-05-15T05:00:00.129Z,81
2023-05-15T05:05:00.118Z,80
2023-05-15T05:10:00.164Z,80
2023-05-15T05:15:00.142Z,79
2023-05-15T05:20:00.151Z,78
2023-05-15T05:25:00.175Z,77
2023-05-15T05:30:00.178Z,73
2023-05-15T05:35:00.132Z,72
2023-05-15T05:40:00.136Z,71
2023-05-15T05:45:00.121Z,69
2023-05-15T05:50:00.120Z,69
2023-05-15T05:55:00.156Z,66
2023-05-15T06:00:00.135Z,68
2023-05-15T06:05:00.127Z,69
2023-05-15T06:10:00.113Z,72
2023-05-15T06:15:00.150Z,73
2023-05-15T06:20:00.140Z,71
2023-05-15T06:25:00.136Z,68
2023-05-15T06:30:00.106Z,65
2023-05-15T06:35:00.115Z,64
2023-05-15T06:40:00.158Z,62
2023-05-15T06:45:00.250Z,59
2023-05-15T06:50:00.163Z,58
2023-05-15T06:55:00.139Z,60
2023-05-15T07:00:00.139Z,61
2023-05-15T07:05:00.259Z,60
2023-05-15T07:10:00.116Z,61
2023-05-15T07:15:00.113Z,61
2023-05-15T07:20:00.122Z,62
2023-05-15T07:25:00.105Z,60
2023-05-15T07:30:00.172Z,57
2023-05-15T07:35:00.121Z,57
2023-05-15T07:40:00.217Z,58
2023-05-15T07:45:00.141Z,58
2023-05-15T07:50:00.148Z,57
2023-05-15T07:55:00.113Z,55
2023-05-15T08:00:00.115Z,54
2023-05-15T08:05:00.137Z,53
2023-05-15T08:10:00.135Z,52
2023-05-15T08:15:00.102Z,55
2023-05-15T08:20:00.137Z,54
2023-05-15T08:25:00.164Z,52
2023-05-15T08:30:00.162Z,51
2023-05-15T08:35:00.149Z,50
2023-05-15T08:40:00.134Z,50
2023-05-15T08:45:00.149Z,49
2023-05-15T08:50:00.173Z,51
2023-05-15T08:55:00.152Z,50
2023-05-15T09:00:00.119Z,50
2023-05-15T09:05:00.159Z,50
2023-05-15T09:10:00.128Z,51
2023-05-15T09:15:00.112Z,50
2023-05-15T09:20:00.148Z,50
2023-05-15T09:25:00.115Z,50
2023-05-15T09:30:00.119Z,50
2023-05-15T09:35:00.125Z,50
2023-05-15T09:40:00.215Z,49
2023-05-15T09:45:00.108Z,50
2023-05-15T09:50:00.135Z,50
2023-05-15T09:55:00.165Z,49
2023-05-15T10:00:00.119Z,49
2023-05-15T10:05:00.218Z,50
2023-05-15T10:10:00.134Z,50
2023-05-15T10:15:00.128Z,50
2023-05-15T10:20:00.130Z,50
2023-05-15T10:25:00.149Z,50
2023-05-15T10:30:00.160Z,50
2023-05-15T10:35:00.147Z,49
2023-05-15T10:40:00.141Z,49
2023-05-15T10:45:00.254Z,51
2023-05-15T10:50:00.179Z,51
2023-05-15T10:55:00.127Z,51
2023-05-15T11:00:00.165Z,51
2023-05-15T11:05:00.196Z,50
2023-05-15T11:10:00.108Z,49
2023-05-15T11:15:00.106Z,49
2023-05-15T11:20:00.209Z,49
2023-05-15T11:25:00.115Z,48
2023-05-15T11:30:00.145Z,47
2023-05-15T11:35:00.163Z,45
2023-05-15T11:40:00.149Z,45
2023-05-15T11:45:00.103Z,45
2023-05-15T11:50:00.127Z,44
2023-05-15T11:55:00.121Z,43
2023-05-15T12:00:00.103Z,43
2023-05-15T12:05:00.179Z,42
2023-05-15T12:10:00.147Z,43
2023-05-15T12:15:00.179Z,43
2023-05-15T12:20:00.155Z,46
2023-05-15T12:25:00.173Z,47
2023-05-15T12:30:00.121Z,47
2023-05-15T12:35:00.124Z,47
2023-05-15T12:40:00.223Z,47
2023-05-15T12:45:00.171Z,47
2023-05-15T12:50:00.178Z,48
2023-05-15T12:55:00.224Z,48
2023-05-15T13:00:00.197Z,46
2023-05-15T13:05:00.145Z,44
2023-05-15T13:10:00.132Z,44
2023-05-15T13:15:00.191Z,44
2023-05-15T13:20:00.192Z,42
2023-05-15T13:25:00.172Z,42
2023-05-15T13:30:00.184Z,43
2023-05-15T13:35:00.140Z,43
2023-05-15T13:40:00.210Z,44
2023-05-15T13:45:00.125Z,45
2023-05-15T13:50:00.185Z,45
2023-05-15T13:55:00.140Z,45
2023-05-15T14:00:00.245Z,45
2023-05-15T14:05:00.153Z,45
2023-05-15T14:10:00.141Z,45
2023-05-15T14:15:00.118Z,45
2023-05-15T14:20:00.130Z,48
2023-05-15T14:25:00.146Z,49
2023-05-15T14:30:00.147Z,52
2023-05-15T14:35:00.267Z,54
2023-05-15T14:40:00.155Z,53
2023-05-15T14:45:00.154Z,54
2023-05-15T14:50:00.138Z,55
2023-05-15T14:55:08.420Z,54
2023-05-15T15:00:00.153Z,54
2023-05-15T15:05:00.163Z,54
2023-05-15T15:10:00.120Z,50
2023-05-15T15:15:00.136Z,49
2023-05-15T15:20:00.152Z,49
2023-05-15T15:25:01.053Z,49
2023-05-15T15:30:00.152Z,48
2023-05-15T15:35:00.115Z,47
2023-05-15T15:40:00.196Z,48
2023-05-15T15:45:00.122Z,49
2023-05-15T15:50:00.116Z,53
2023-05-15T15:55:00.139Z,54
2023-05-15T16:00:00.188Z,53
2023-05-15T16:05:00.144Z,55
2023-05-15T16:10:11.373Z,53
2023-05-15T16:15:06.850Z,52
2023-05-15T16:20:00.272Z,50
2023-05-15T16:25:00.120Z,49
2023-05-15T16:30:00.210Z,49
2023-05-15T16:35:00.141Z,49
2023-05-15T16:40:00.326Z,48
2023-05-15T16:45:00.101Z,48
2023-05-15T16:50:00.177Z,48
2023-05-15T16:55:00.134Z,48
2023-05-15T17:00:00.149Z,47
2023-05-15T17:05:00.127Z,48
2023-05-15T17:10:00.133Z,49
2023-05-15T17:15:00.153Z,50
2023-05-15T17:20:01.901Z,51
2023-05-15T17:25:00.096Z,52
2023-05-15T17:30:00.155Z,53
2023-05-15T17:35:00.153Z,52
2023-05-15T17:40:00.124Z,53
2023-05-15T17:45:00.142Z,54
2023-05-15T17:50:00.262Z,54
2023-05-15T17:55:00.119Z,54
2023-05-15T18:00:00.122Z,55
2023-05-15T18:05:00.121Z,56
2023-05-15T18:10:00.152Z,56
2023-05-15T18:15:00.107Z,55
2023-05-15T18:20:00.129Z,55
2023-05-15T18:25:00.126Z,55
2023-05-15T18:30:00.137Z,55
2023-05-15T18:35:00.124Z,56
2023-05-15T18:40:00.146Z,57
2023-05-15T18:45:00.118Z,57
2023-05-15T18:50:00.213Z,57
2023-05-15T18:55:00.164Z,58
2023-05-15T19:00:00.132Z,58
2023-05-15T19:05:05.117Z,58
2023-05-15T19:10:00.115Z,59
2023-05-15T19:15:00.161Z,58
2023-05-15T19:20:00.133Z,59
2023-05-15T19:25:00.170Z,59
2023-05-15T19:30:00.167Z,59
2023-05-15T19:35:00.146Z,61
2023-05-15T19:40:00.139Z,60
2023-05-15T19:45:00.138Z,59
2023-05-15T19:50:00.133Z,60
2023-05-15T19:55:00.132Z,59
2023-05-15T20:00:00.150Z,60
2023-05-15T20:05:00.128Z,61
2023-05-15T20:10:00.107Z,61
2023-05-15T20:15:00.153Z,61
2023-05-15T20:20:00.155Z,62
2023-05-15T20:25:00.145Z,62
2023-05-15T20:30:00.169Z,63
2023-05-15T20:35:00.136Z,63
2023-05-15T20:40:00.228Z,63
2023-05-15T20:45:00.123Z,64
2023-05-15T20:50:00.143Z,64
2023-05-15T20:55:00.130Z,64
2023-05-15T21:00:00.111Z,64
2023-05-15T21:05:00.160Z,64
2023-05-15T21:10:00.177Z,65
2023-05-15T21:15:00.131Z,65
2023-05-15T21:20:00.146Z,65
2023-05-15T21:25:00.137Z,65
2023-05-15T21:30:00.141Z,65
2023-05-15T21:35:00.114Z,65
2023-05-15T21:40:00.159Z,65
2023-05-15T21:45:00.136Z,65
2023-05-15T21:50:00.133Z,65
2023-05-15T21:55:00.118Z,66
2023-05-15T22:00:00.149Z,67
2023-05-15T22:05:00.174Z,69
2023-05-15T22:10:00.144Z,68
2023-05-15T22:15:00.316Z,68
2023-05-15T22:20:00.149Z,68
2023-05-15T22:25:00.139Z,69
2023-05-15T22:30:00.136Z,68
2023-05-15T22:35:00.145Z,68
2023-05-15T22:40:00.146Z,68
2023-05-15T22:45:00.131Z,67
2023-05-15T22:50:00.134Z,67
2023-05-15T22:55:00.168Z,66
2023-05-15T23:00:00.123Z,67
2023-05-15T23:05:00.147Z,67
2023-05-15T23:10:00.135Z,67
2023-05-15T23:15:00.095Z,67
2023-05-15T23:20:00.160Z,68
2023-05-15T23:25:00.142Z,68
2023-05-15T23:30:00.128Z,68
2023-05-15T23:35:00.125Z,69
2023-05-15T23:40:00.143Z,68
2023-05-15T23:45:00.159Z,68
2023-05-15T23:50:00.165Z,68
2023-05-15T23:55:00.160Z,68
